createdAt,value
2018-06-10T00:04:42.619Z,29.57
2018-06-10T00:09:36.610Z,34.50
2018-06-10T00:14:29.915Z,31.87
2018-06-10T00:19:23.239Z,34.05
2018-06-10T00:24:16.505Z,32.47
2018-06-10T00:29:15.494Z,32.00
2018-06-10T00:34:08.723Z,34.23
2018-06-10T00:39:02.002Z,36.08
2018-06-10T00:43:55.222Z,37.27
2018-06-10T00:48:48.482Z,37.60
2018-06-10T00:53:41.721Z,34.87
2018-06-10T00:58:34.933Z,38.33
2018-06-10T01:03:28.206Z,40.17
2018-06-10T01:08:21.436Z,38.92
2018-06-10T01:13:14.678Z,37.50
2018-06-10T01:18:08.154Z,31.27
2018-06-10T01:23:01.420Z,24.60
2018-06-10T01:27:54.646Z,21.53
2018-06-10T01:32:47.906Z,18.97
2018-06-10T01:37:41.162Z,17.17
2018-06-10T01:42:34.400Z,20.65
2018-06-10T01:47:27.671Z,19.93
2018-06-10T01:52:20.888Z,23.12
2018-06-10T01:57:14.170Z,19.17
2018-06-10T02:02:07.432Z,18.25
2018-06-10T02:07:00.715Z,19.03
2018-06-10T02:11:53.957Z,20.20
2018-06-10T02:16:47.113Z,22.57
2018-06-10T02:21:40.362Z,21.62
2018-06-10T02:26:33.621Z,22.43
2018-06-10T02:31:26.882Z,22.25
2018-06-10T02:36:20.177Z,21.67
2018-06-10T02:41:13.420Z,22.80
2018-06-10T02:46:06.660Z,22.50
2018-06-10T02:50:59.924Z,22.98
2018-06-10T02:55:53.994Z,25.60
2018-06-10T03:00:47.245Z,24.37
2018-06-10T03:05:40.502Z,24.57
2018-06-10T03:10:33.773Z,26.17
2018-06-10T03:15:26.945Z,28.27
2018-06-10T03:20:20.201Z,29.33
2018-06-10T03:25:13.445Z,30.55
2018-06-10T03:30:06.689Z,30.83
2018-06-10T03:34:59.923Z,29.60
2018-06-10T03:39:53.180Z,33.47
2018-06-10T03:44:46.426Z,33.28
2018-06-10T03:49:39.651Z,31.87
2018-06-10T03:54:32.919Z,34.88
2018-06-10T03:59:26.146Z,35.00
2018-06-10T04:04:19.389Z,37.03
2018-06-10T04:09:12.654Z,34.53
2018-06-10T04:14:05.898Z,38.00
2018-06-10T04:18:59.203Z,40.13
2018-06-10T04:23:52.531Z,39.70
2018-06-10T04:28:45.772Z,38.63
2018-06-10T04:33:39.007Z,36.97
2018-06-10T04:38:32.321Z,36.47
2018-06-10T04:43:25.458Z,24.47
2018-06-10T04:48:18.736Z,24.43
2018-06-10T04:53:11.995Z,22.37
2018-06-10T04:58:05.272Z,21.23
2018-06-10T05:02:58.523Z,19.00
2018-06-10T05:07:51.789Z,17.75
2018-06-10T05:12:45.029Z,16.60
2018-06-10T05:17:38.298Z,17.37
2018-06-10T05:22:31.534Z,17.13
2018-06-10T05:27:24.794Z,18.40
2018-06-10T05:32:18.032Z,17.40
2018-06-10T05:37:11.300Z,15.38
2018-06-10T05:42:04.995Z,17.73
2018-06-10T05:46:58.262Z,21.53
2018-06-10T05:51:51.446Z,22.60
2018-06-10T05:56:44.684Z,17.00
2018-06-10T06:01:37.923Z,20.90
2018-06-10T06:06:31.186Z,22.43
2018-06-10T06:11:24.440Z,26.62
2018-06-10T06:16:17.613Z,25.80
2018-06-10T06:21:10.767Z,29.52
2018-06-10T06:26:04.036Z,26.63
2018-06-10T06:30:57.315Z,26.95
2018-06-10T06:35:50.555Z,24.77
2018-06-10T06:40:43.794Z,25.17
2018-06-10T06:45:37.071Z,21.33
2018-06-10T06:50:30.334Z,24.00
2018-06-10T06:55:23.560Z,22.13
2018-06-10T07:00:16.865Z,19.85
2018-06-10T07:05:10.184Z,23.33
2018-06-10T07:10:04.366Z,23.27
2018-06-10T07:14:57.720Z,24.60
2018-06-10T07:19:50.851Z,25.32
2018-06-10T07:24:44.134Z,24.53
2018-06-10T07:29:37.420Z,22.95
2018-06-10T07:34:30.674Z,34.80
2018-06-10T07:39:23.977Z,51.98
2018-06-10T07:44:17.264Z,30.57
2018-06-10T07:49:10.605Z,31.77
2018-06-10T07:54:03.855Z,30.97
2018-06-10T07:58:57.377Z,34.60
2018-06-10T08:03:50.627Z,30.90
2018-06-10T08:08:43.922Z,35.90
2018-06-10T08:13:37.232Z,35.50
2018-06-10T08:18:30.432Z,38.65
2018-06-10T08:23:23.715Z,38.10
2018-06-10T08:28:17.007Z,33.13
2018-06-10T08:33:10.281Z,34.90
2018-06-10T08:38:03.523Z,36.93
2018-06-10T08:42:56.799Z,43.07
2018-06-10T08:47:50.055Z,40.90
2018-06-10T08:52:43.231Z,40.60
2018-06-10T08:57:36.393Z,45.20
2018-06-10T09:02:29.864Z,50.47
2018-06-10T09:07:23.134Z,50.50
2018-06-10T09:12:16.415Z,50.30
2018-06-10T09:17:09.738Z,46.77
2018-06-10T09:22:03.070Z,44.87
2018-06-10T09:26:56.302Z,45.10
2018-06-10T09:31:49.569Z,46.33
2018-06-10T09:36:42.836Z,44.65
2018-06-10T09:41:36.268Z,46.23
2018-06-10T09:46:29.616Z,38.03
2018-06-10T09:51:22.890Z,50.50
2018-06-10T09:56:16.169Z,46.87
2018-06-10T10:01:09.436Z,46.73
2018-06-10T10:06:02.828Z,48.00
2018-06-10T10:10:56.772Z,49.27
2018-06-10T10:15:50.049Z,51.27
2018-06-10T10:20:43.375Z,50.67
2018-06-10T10:25:36.727Z,54.33
2018-06-10T10:30:29.989Z,44.48
2018-06-10T10:35:23.258Z,46.83
2018-06-10T10:40:16.590Z,38.63
2018-06-10T10:45:09.889Z,43.83
2018-06-10T10:50:03.173Z,44.73
2018-06-10T10:54:56.323Z,42.80
2018-06-10T10:59:49.597Z,46.17
2018-06-10T11:04:42.873Z,48.92
2018-06-10T11:09:36.195Z,49.07
2018-06-10T11:14:29.445Z,55.20
2018-06-10T11:19:22.977Z,54.50
2018-06-10T11:24:17.210Z,55.70
2018-06-10T11:29:11.565Z,56.47
2018-06-10T11:34:04.804Z,58.03
2018-06-10T11:38:58.068Z,56.80
2018-06-10T11:43:51.283Z,56.43
2018-06-10T11:48:44.613Z,55.52
2018-06-10T11:53:37.983Z,61.20
2018-06-10T11:58:31.163Z,57.15
2018-06-10T12:03:24.443Z,52.47
2018-06-10T12:08:17.788Z,61.90
2018-06-10T12:13:11.052Z,61.53
2018-06-10T12:18:04.367Z,56.40
2018-06-10T12:22:57.537Z,55.87
2018-06-10T12:27:50.719Z,56.60
2018-06-10T12:32:44.357Z,58.47
2018-06-10T12:37:37.757Z,60.73
2018-06-10T12:42:31.072Z,62.33
2018-06-10T12:47:24.341Z,61.93
2018-06-10T12:52:17.619Z,60.77
2018-06-10T12:57:10.881Z,57.57
2018-06-10T13:02:04.153Z,59.05
2018-06-10T13:06:57.462Z,53.83
2018-06-10T13:11:50.771Z,48.85
2018-06-10T13:16:44.043Z,55.57
2018-06-10T13:21:37.427Z,48.73
2018-06-10T13:26:30.681Z,51.50
2018-06-10T13:31:23.980Z,42.83
2018-06-10T13:36:17.366Z,40.03
2018-06-10T13:41:10.634Z,35.93
2018-06-10T13:46:04.003Z,27.65
2018-06-10T13:50:57.296Z,23.33
2018-06-10T13:55:50.527Z,21.57
2018-06-10T14:00:43.792Z,23.77
2018-06-10T14:05:37.089Z,22.17
2018-06-10T14:10:30.358Z,19.85
2018-06-10T14:15:23.631Z,23.07
2018-06-10T14:20:16.903Z,21.65
2018-06-10T14:25:10.203Z,17.97
2018-06-10T14:30:03.579Z,15.40
2018-06-10T14:34:56.870Z,14.33
2018-06-10T14:39:50.160Z,15.47
2018-06-10T14:44:43.427Z,17.30
2018-06-10T14:49:36.707Z,14.67
2018-06-10T14:54:29.978Z,17.90
2018-06-10T14:59:23.266Z,16.90
2018-06-10T15:04:16.541Z,18.50
2018-06-10T15:09:09.852Z,15.80
2018-06-10T15:14:03.376Z,14.78
2018-06-10T15:18:56.650Z,14.67
2018-06-10T15:23:49.921Z,17.57
2018-06-10T15:28:43.245Z,15.85
2018-06-10T15:33:36.497Z,19.03
2018-06-10T15:38:29.659Z,17.02
2018-06-10T15:43:22.927Z,15.07
2018-06-10T15:48:16.213Z,15.65
2018-06-10T15:53:09.411Z,16.40
2018-06-10T15:58:02.704Z,15.43
2018-06-10T16:02:55.981Z,17.77
2018-06-10T16:07:49.287Z,17.25
2018-06-10T16:12:42.540Z,17.07
2018-06-10T16:17:35.800Z,17.95
2018-06-10T16:22:29.112Z,17.50
2018-06-10T16:27:23.266Z,19.40
2018-06-10T16:32:16.518Z,15.87
2018-06-10T16:37:09.672Z,19.65
2018-06-10T16:42:02.924Z,19.87
2018-06-10T16:46:56.191Z,18.57
2018-06-10T16:51:49.432Z,18.43
2018-06-10T16:56:42.692Z,18.42
2018-06-10T17:01:35.837Z,16.07
2018-06-10T17:06:29.096Z,18.20
2018-06-10T17:11:22.380Z,18.57
2018-06-10T17:16:15.676Z,18.75
2018-06-10T17:21:09.839Z,17.20
2018-06-10T17:26:03.178Z,18.42
2018-06-10T17:30:56.501Z,19.47
2018-06-10T17:35:49.730Z,17.13
2018-06-10T17:40:42.985Z,16.97
2018-06-10T17:45:36.263Z,16.67
2018-06-10T17:50:29.545Z,18.85
2018-06-10T17:55:22.810Z,18.30
2018-06-10T18:00:16.237Z,18.62
2018-06-10T18:05:09.539Z,16.67
2018-06-10T18:10:02.799Z,17.30
2018-06-10T18:14:56.057Z,17.40
2018-06-10T18:19:49.354Z,19.42
2018-06-10T18:24:42.639Z,18.70
2018-06-10T18:29:35.871Z,17.92
2018-06-10T18:34:29.139Z,18.43
2018-06-10T18:39:22.416Z,17.62
2018-06-10T18:44:15.662Z,17.30
2018-06-10T18:49:08.899Z,17.57
2018-06-10T18:54:02.697Z,17.77
2018-06-10T18:58:56.245Z,19.20
2018-06-10T19:03:49.584Z,17.87
2018-06-10T19:08:42.877Z,17.95
2018-06-10T19:13:36.153Z,18.37
2018-06-10T19:18:30.618Z,17.57
2018-06-10T19:23:24.411Z,16.57
2018-06-10T19:28:17.578Z,16.77
2018-06-10T19:33:11.079Z,18.90
2018-06-10T19:38:04.419Z,16.20
2018-06-10T19:42:57.815Z,15.93
2018-06-10T19:47:51.159Z,15.15
2018-06-10T19:52:44.497Z,16.63
2018-06-10T19:57:37.742Z,15.88
2018-06-10T20:02:31.110Z,16.90
2018-06-10T20:07:24.487Z,15.40
2018-06-10T20:12:18.911Z,15.80
2018-06-10T20:17:12.229Z,16.00
2018-06-10T20:22:05.504Z,15.40
2018-06-10T20:26:58.842Z,15.33
2018-06-10T20:31:52.180Z,16.23
2018-06-10T20:36:46.137Z,14.83
2018-06-10T20:41:40.287Z,15.43
2018-06-10T20:46:33.542Z,15.60
2018-06-10T20:51:26.873Z,18.02
2018-06-10T20:56:20.232Z,16.20
2018-06-10T21:01:13.421Z,16.10
2018-06-10T21:06:06.667Z,17.40
2018-06-10T21:11:00.004Z,18.43
2018-06-10T21:15:53.308Z,16.65
2018-06-10T21:20:46.589Z,15.93
2018-06-10T21:25:39.980Z,17.60
2018-06-10T21:30:33.141Z,19.57
2018-06-10T21:35:26.377Z,17.53
2018-06-10T21:40:19.721Z,17.05
2018-06-10T21:45:13.329Z,16.97
2018-06-10T21:50:06.634Z,16.30
2018-06-10T21:55:00.016Z,15.48
2018-06-10T21:59:53.325Z,16.20
2018-06-10T22:04:46.671Z,16.60
2018-06-10T22:09:40.121Z,16.90
2018-06-10T22:14:33.366Z,16.97
2018-06-10T22:19:26.733Z,16.63
2018-06-10T22:24:20.052Z,16.77
2018-06-10T22:29:13.350Z,19.40
2018-06-10T22:34:06.767Z,16.67
2018-06-10T22:39:02.304Z,17.23
2018-06-10T22:43:55.576Z,17.03
2018-06-10T22:48:48.865Z,16.80
2018-06-10T22:54:36.753Z,19.77
2018-06-10T22:59:30.063Z,17.87
2018-06-10T23:04:23.614Z,16.85
2018-06-10T23:09:16.982Z,17.63
2018-06-10T23:14:10.342Z,18.50
2018-06-10T23:19:03.613Z,19.27
2018-06-10T23:23:56.889Z,19.20
2018-06-10T23:28:50.172Z,18.57
2018-06-10T23:33:43.446Z,18.62
2018-06-10T23:38:36.710Z,20.97
2018-06-10T23:43:29.976Z,19.02
2018-06-10T23:48:23.916Z,19.23
2018-06-10T23:53:17.240Z,20.50
2018-06-10T23:58:10.535Z,20.40
